Time;durP1;ratioP1;P1;durP2;ratioP2;P2;SDS_P1;SDS_P2;PMS_P1;PMS_P2;Temp;Humidity;BMP_temperature;BMP_pressure;BME280_temperature;BME280_humidity;BME280_pressure;Samples;Min_cycle;Max_cycle;Signal;HPM_P1;HPM_P2
2023/05/17 00:01:51;;;;;;;10.30;3.40;;;11.10;99.90;;;;;;6245505;22;20459;-65
2023/05/17 00:04:17;;;;;;;15.40;3.88;;;11.10;99.90;;;;;;6273013;22;20012;-66
2023/05/17 00:06:43;;;;;;;19.85;4.32;;;11.00;99.90;;;;;;6273038;22;20039;-65
2023/05/17 00:09:09;;;;;;;14.38;4.03;;;11.00;99.90;;;;;;6273027;22;20020;-65
2023/05/17 00:11:35;;;;;;;12.45;3.83;;;11.00;99.90;;;;;;6273351;22;20029;-65
2023/05/17 00:14:01;;;;;;;11.90;3.90;;;11.00;99.90;;;;;;6272942;22;20016;-65
2023/05/17 00:16:26;;;;;;;17.60;4.07;;;11.00;99.90;;;;;;6245474;22;20045;-65
2023/05/17 00:18:52;;;;;;;15.45;3.85;;;10.90;99.90;;;;;;6272759;22;20024;-65
2023/05/17 00:21:18;;;;;;;10.85;3.38;;;10.90;99.90;;;;;;6273214;22;20027;-65
2023/05/17 00:23:44;;;;;;;14.30;4.43;;;10.90;99.90;;;;;;6272793;22;20012;-65
2023/05/17 00:26:10;;;;;;;14.93;4.18;;;10.90;99.90;;;;;;6272887;22;20023;-65
2023/05/17 00:28:35;;;;;;;10.30;4.10;;;10.80;99.90;;;;;;6272914;22;20019;-65
2023/05/17 00:31:01;;;;;;;13.15;3.80;;;10.80;99.90;;;;;;6272438;22;20059;-65
2023/05/17 00:33:27;;;;;;;10.38;3.80;;;10.80;99.90;;;;;;6272857;22;20112;-65
2023/05/17 00:35:52;;;;;;;13.25;4.13;;;10.70;99.90;;;;;;6245791;22;20038;-64
2023/05/17 00:38:18;;;;;;;11.95;3.25;;;10.70;99.90;;;;;;6273331;22;20020;-66
2023/05/17 00:40:44;;;;;;;12.18;4.13;;;10.70;99.90;;;;;;6273182;22;20032;-65
2023/05/17 00:43:10;;;;;;;12.75;4.03;;;10.50;99.90;;;;;;6272606;22;20097;-65
2023/05/17 00:45:36;;;;;;;13.20;3.53;;;10.50;99.90;;;;;;6273025;22;20020;-65
2023/05/17 00:48:02;;;;;;;8.98;3.30;;;10.40;99.90;;;;;;6273212;22;20019;-65
2023/05/17 00:50:27;;;;;;;8.73;3.80;;;10.30;99.90;;;;;;6272706;22;20059;-65
2023/05/17 00:52:54;;;;;;;11.70;3.50;;;10.40;99.90;;;;;;6272635;22;20055;-65
2023/05/17 00:55:20;;;;;;;10.90;3.60;;;10.40;99.90;;;;;;6272178;22;20093;-65
2023/05/17 00:57:46;;;;;;;8.85;2.60;;;10.40;99.90;;;;;;6245271;22;20027;-65
2023/05/17 01:00:12;;;;;;;14.10;3.35;;;10.30;99.90;;;;;;6272786;22;20510;-65
2023/05/17 01:02:38;;;;;;;13.38;3.17;;;10.20;99.90;;;;;;6272850;22;20392;-65
2023/05/17 01:05:04;;;;;;;11.13;2.80;;;10.20;99.90;;;;;;6272939;22;20040;-65
2023/05/17 01:07:30;;;;;;;12.57;2.85;;;10.20;99.90;;;;;;6272955;22;20018;-65
2023/05/17 01:09:57;;;;;;;18.92;3.75;;;10.20;99.90;;;;;;6272758;22;20467;-65
2023/05/17 01:12:42;;;;;;;7.82;2.55;;;10.10;99.90;;;;;;6271830;22;20368;-65
2023/05/17 01:15:14;;;;;;;16.15;2.90;;;10.20;99.90;;;;;;6272518;22;20091;-65
2023/05/17 01:17:50;;;;;;;15.88;3.20;;;10.20;99.90;;;;;;6272792;22;20027;-65
2023/05/17 01:20:16;;;;;;;11.95;3.03;;;10.20;99.90;;;;;;6272481;22;20339;-65
2023/05/17 01:22:46;;;;;;;9.88;3.10;;;10.20;99.90;;;;;;6244867;22;20138;-65
2023/05/17 01:25:27;;;;;;;17.85;3.78;;;10.10;99.90;;;;;;6272191;22;20051;-65
2023/05/17 01:27:57;;;;;;;12.55;2.65;;;10.10;99.90;;;;;;6244585;22;20023;-65
2023/05/17 01:30:25;;;;;;;13.80;2.58;;;10.10;99.90;;;;;;6244697;22;20081;-65
2023/05/17 01:32:54;;;;;;;9.70;3.70;;;10.20;99.90;;;;;;6244962;22;20020;-65
2023/05/17 01:35:19;;;;;;;9.05;2.65;;;10.10;99.90;;;;;;6271994;22;20119;-65
2023/05/17 01:37:45;;;;;;;13.32;2.72;;;10.10;99.90;;;;;;6272239;22;20051;-65
2023/05/17 01:40:11;;;;;;;17.17;3.40;;;10.10;99.90;;;;;;6272234;22;20026;-65
2023/05/17 01:42:40;;;;;;;21.80;4.50;;;10.10;99.90;;;;;;6272091;22;20430;-65
2023/05/17 01:45:30;;;;;;;10.55;2.80;;;10.10;99.90;;;;;;6244063;22;20030;-65
2023/05/17 01:48:10;;;;;;;11.25;3.58;;;10.10;99.90;;;;;;6271960;22;20015;-65
2023/05/17 01:50:38;;;;;;;17.58;2.85;;;10.00;99.90;;;;;;6245125;22;20090;-64
2023/05/17 01:53:13;;;;;;;10.45;2.65;;;10.00;99.90;;;;;;6272182;22;20019;-65
2023/05/17 01:55:44;;;;;;;12.65;2.95;;;10.00;99.90;;;;;;6272040;22;20020;-65
2023/05/17 01:58:11;;;;;;;9.20;2.92;;;10.00;99.90;;;;;;6272003;22;20019;-65
2023/05/17 02:00:40;;;;;;;21.77;3.35;;;10.00;99.90;;;;;;6244843;22;20012;-65
2023/05/17 02:03:06;;;;;;;12.88;2.92;;;10.00;99.90;;;;;;6244406;22;20684;-65
2023/05/17 02:05:31;;;;;;;16.98;3.67;;;10.00;99.90;;;;;;6244401;22;20016;-65
2023/05/17 02:07:57;;;;;;;15.10;4.05;;;10.00;99.90;;;;;;6244526;22;20027;-65
2023/05/17 02:10:23;;;;;;;16.83;3.50;;;10.00;99.90;;;;;;6271651;22;20062;-65
2023/05/17 02:12:48;;;;;;;10.98;2.70;;;10.00;99.90;;;;;;6272060;22;20027;-65
2023/05/17 02:15:15;;;;;;;12.18;2.95;;;10.00;99.90;;;;;;6271913;22;20031;-65
2023/05/17 02:17:41;;;;;;;12.38;3.38;;;10.00;99.90;;;;;;6271364;22;20098;-64
2023/05/17 02:20:08;;;;;;;11.75;2.83;;;10.00;99.90;;;;;;6271851;22;20051;-65
2023/05/17 02:22:34;;;;;;;13.45;3.00;;;9.90;99.90;;;;;;6271868;22;20072;-65
2023/05/17 02:25:00;;;;;;;8.32;2.95;;;9.90;99.90;;;;;;6271695;22;20022;-65
2023/05/17 02:27:25;;;;;;;9.95;3.03;;;9.90;99.90;;;;;;6271446;22;20016;-65
2023/05/17 02:29:51;;;;;;;17.65;3.05;;;9.90;99.90;;;;;;6244248;22;20090;-65
2023/05/17 02:32:17;;;;;;;15.35;2.83;;;9.80;99.90;;;;;;6271847;22;20097;-65
2023/05/17 02:34:42;;;;;;;15.85;3.38;;;9.80;99.90;;;;;;6271885;22;20022;-65
2023/05/17 02:37:08;;;;;;;15.50;3.40;;;9.90;99.90;;;;;;6271586;22;20058;-65
2023/05/17 02:39:34;;;;;;;13.57;3.03;;;9.90;99.90;;;;;;6271514;22;20016;-65
2023/05/17 02:41:59;;;;;;;13.68;3.05;;;9.80;99.90;;;;;;6244252;22;20024;-65
2023/05/17 02:44:25;;;;;;;11.98;3.83;;;9.80;99.90;;;;;;6271453;22;20034;-65
2023/05/17 02:46:51;;;;;;;10.18;2.55;;;9.80;99.90;;;;;;6272032;22;20028;-65
2023/05/17 02:49:16;;;;;;;14.23;2.97;;;9.80;99.90;;;;;;6271782;22;20085;-65
2023/05/17 02:51:42;;;;;;;14.73;3.05;;;9.80;99.90;;;;;;6272025;22;20020;-65
2023/05/17 02:54:08;;;;;;;13.73;4.10;;;9.80;99.90;;;;;;6271714;22;20047;-66
2023/05/17 02:56:33;;;;;;;14.20;5.07;;;9.70;99.90;;;;;;6271503;22;20526;-65
2023/05/17 02:59:00;;;;;;;15.70;3.22;;;9.70;99.90;;;;;;6273863;22;20095;-65
2023/05/17 03:01:26;;;;;;;11.90;2.83;;;9.60;99.90;;;;;;6273807;22;20068;-65
2023/05/17 03:03:52;;;;;;;12.55;4.28;;;9.60;99.90;;;;;;6246645;22;20027;-65
2023/05/17 03:06:18;;;;;;;15.85;3.95;;;9.60;99.90;;;;;;6273537;22;20012;-65
2023/05/17 03:08:44;;;;;;;14.45;4.25;;;9.60;99.90;;;;;;6273463;22;20012;-65
2023/05/17 03:11:10;;;;;;;20.67;3.80;;;9.50;99.90;;;;;;6246248;22;20020;-65
2023/05/17 03:13:36;;;;;;;15.13;3.22;;;9.50;99.90;;;;;;6246617;22;20338;-65
2023/05/17 03:16:01;;;;;;;13.02;3.03;;;9.50;99.90;;;;;;6273497;22;20011;-65
2023/05/17 03:18:27;;;;;;;12.77;3.20;;;9.50;99.90;;;;;;6273637;22;20085;-65
2023/05/17 03:20:53;;;;;;;16.45;3.55;;;9.40;99.90;;;;;;6273781;22;20024;-64
2023/05/17 03:23:18;;;;;;;15.48;3.20;;;9.40;99.90;;;;;;6245829;22;20066;-65
2023/05/17 03:25:44;;;;;;;10.52;2.55;;;9.40;99.90;;;;;;6246034;22;20027;-65
2023/05/17 03:28:10;;;;;;;14.65;3.85;;;9.40;99.90;;;;;;6273570;22;20340;-65
2023/05/17 03:30:36;;;;;;;16.25;5.15;;;9.30;99.90;;;;;;6273453;22;20015;-65
2023/05/17 03:33:01;;;;;;;8.10;2.58;;;9.30;99.90;;;;;;6273589;22;20059;-66
2023/05/17 03:35:27;;;;;;;12.02;3.92;;;9.30;99.90;;;;;;6273647;22;20023;-65
2023/05/17 03:37:52;;;;;;;13.02;2.70;;;9.30;99.90;;;;;;6272940;22;20024;-65
2023/05/17 03:40:18;;;;;;;18.90;4.55;;;9.20;99.90;;;;;;6273482;22;20012;-65
2023/05/17 03:42:44;;;;;;;10.02;2.25;;;9.20;99.90;;;;;;6273324;22;20091;-65
2023/05/17 03:45:11;;;;;;;14.90;2.45;;;9.10;99.90;;;;;;6240512;23;20020;-65
2023/05/17 03:47:37;;;;;;;13.32;2.80;;;9.20;99.90;;;;;;6242604;23;20022;-65
2023/05/17 03:50:04;;;;;;;14.05;2.22;;;9.10;99.90;;;;;;6242169;23;20051;-65
2023/05/17 03:52:29;;;;;;;11.70;2.70;;;9.20;99.90;;;;;;6242474;23;20027;-65
2023/05/17 03:54:55;;;;;;;13.30;3.30;;;9.10;99.90;;;;;;6242540;23;20011;-65
2023/05/17 03:57:21;;;;;;;11.50;2.65;;;9.10;99.90;;;;;;6242686;23;20020;-65
2023/05/17 03:59:47;;;;;;;13.98;3.15;;;9.10;99.90;;;;;;6242536;23;20484;-65
2023/05/17 04:02:15;;;;;;;11.45;3.80;;;9.20;99.90;;;;;;6242591;23;20048;-66
2023/05/17 04:04:41;;;;;;;10.57;2.58;;;9.10;99.90;;;;;;6242950;23;20019;-65
2023/05/17 04:07:06;;;;;;;12.30;2.20;;;9.20;99.90;;;;;;6242733;23;20024;-65
2023/05/17 04:09:33;;;;;;;16.30;3.15;;;9.20;99.90;;;;;;6241888;23;20420;-65
2023/05/17 04:11:59;;;;;;;13.60;2.70;;;9.10;99.90;;;;;;6215394;23;20241;-65
2023/05/17 04:14:25;;;;;;;19.63;3.78;;;9.20;99.90;;;;;;6241940;23;20418;-65
2023/05/17 04:16:51;;;;;;;11.90;2.50;;;9.20;99.90;;;;;;6242459;23;20016;-65
2023/05/17 04:19:16;;;;;;;6.30;2.30;;;9.30;99.90;;;;;;6242184;23;20023;-65
2023/05/17 04:21:43;;;;;;;8.52;2.53;;;9.20;99.90;;;;;;6242125;23;20463;-65
2023/05/17 04:24:09;;;;;;;10.52;2.95;;;9.10;99.90;;;;;;6242456;23;20016;-65
2023/05/17 04:26:34;;;;;;;9.77;2.30;;;9.20;99.90;;;;;;6215207;23;20478;-65
2023/05/17 04:29:00;;;;;;;10.65;2.67;;;9.30;99.90;;;;;;6214723;23;20401;-65
2023/05/17 04:31:26;;;;;;;11.05;2.67;;;9.30;99.90;;;;;;6242212;23;20020;-64
2023/05/17 04:33:52;;;;;;;14.05;2.60;;;9.40;99.90;;;;;;6241824;23;20460;-65
2023/05/17 04:36:17;;;;;;;15.77;3.58;;;9.50;99.90;;;;;;6241848;23;20020;-65
2023/05/17 04:38:43;;;;;;;11.60;2.50;;;9.50;99.90;;;;;;6214949;23;20329;-65
2023/05/17 04:41:09;;;;;;;10.13;2.63;;;9.50;99.90;;;;;;6242035;23;20067;-65
2023/05/17 04:43:35;;;;;;;12.57;3.17;;;9.50;99.90;;;;;;6214678;23;20020;-65
2023/05/17 04:46:00;;;;;;;11.18;2.70;;;9.60;99.90;;;;;;6213910;23;20460;-65
2023/05/17 04:48:29;;;;;;;8.93;2.33;;;9.70;99.90;;;;;;6214849;23;20090;-65
2023/05/17 04:50:55;;;;;;;14.68;3.38;;;9.80;99.90;;;;;;6241909;23;20016;-64
2023/05/17 04:53:21;;;;;;;7.63;2.58;;;10.00;99.90;;;;;;6241756;23;20408;-65
2023/05/17 04:55:49;;;;;;;13.23;2.80;;;10.00;99.90;;;;;;6241870;23;20016;-65
2023/05/17 04:58:15;;;;;;;11.43;2.30;;;10.00;99.90;;;;;;6241105;23;20020;-65
2023/05/17 05:00:41;;;;;;;8.88;2.67;;;10.00;99.90;;;;;;6239802;23;20103;-65
2023/05/17 05:03:07;;;;;;;10.75;2.42;;;10.10;99.90;;;;;;6241957;23;20048;-65
2023/05/17 05:05:33;;;;;;;7.68;2.22;;;10.10;99.90;;;;;;6241714;23;20146;-65
2023/05/17 05:07:58;;;;;;;12.18;2.35;;;10.20;99.90;;;;;;6215255;23;20098;-65
2023/05/17 05:10:27;;;;;;;12.43;2.35;;;10.40;99.90;;;;;;6240183;23;20402;-65
2023/05/17 05:12:53;;;;;;;6.35;1.90;;;10.60;99.90;;;;;;6240687;23;20032;-65
2023/05/17 05:15:19;;;;;;;8.30;2.03;;;10.70;99.90;;;;;;6242419;23;20139;-65
2023/05/17 05:17:44;;;;;;;3.80;1.90;;;10.80;99.90;;;;;;6215346;23;20501;-65
2023/05/17 05:20:10;;;;;;;6.18;1.90;;;10.80;99.90;;;;;;6242070;23;20043;-65
2023/05/17 05:22:36;;;;;;;9.70;1.95;;;10.90;99.90;;;;;;6242096;23;20024;-65
2023/05/17 05:25:02;;;;;;;5.80;2.00;;;11.00;99.90;;;;;;6242041;23;20016;-65
2023/05/17 05:27:27;;;;;;;10.18;2.13;;;11.00;99.90;;;;;;6214984;23;20026;-65
2023/05/17 05:29:56;;;;;;;10.80;2.05;;;11.10;99.90;;;;;;6242589;23;20017;-65
2023/05/17 05:32:21;;;;;;;6.43;1.63;;;11.20;99.90;;;;;;6242750;23;20020;-65
2023/05/17 05:34:47;;;;;;;7.28;1.50;;;11.20;99.90;;;;;;6242045;23;20023;-66
2023/05/17 05:37:13;;;;;;;6.20;1.70;;;10.90;99.90;;;;;;6242334;23;20100;-65
2023/05/17 05:39:39;;;;;;;11.10;2.42;;;10.90;99.90;;;;;;6242709;23;20023;-65
2023/05/17 05:42:05;;;;;;;5.97;1.80;;;11.00;99.90;;;;;;6215034;23;20024;-65
2023/05/17 05:44:31;;;;;;;8.88;2.42;;;11.00;99.90;;;;;;6214827;23;20329;-65
2023/05/17 05:46:59;;;;;;;3.28;1.58;;;11.00;99.90;;;;;;6241745;23;20511;-66
2023/05/17 05:49:25;;;;;;;5.07;1.95;;;11.00;99.90;;;;;;6214724;23;20019;-65
2023/05/17 05:51:51;;;;;;;9.55;1.52;;;11.20;99.90;;;;;;6214809;23;20031;-65
2023/05/17 05:54:16;;;;;;;15.38;3.30;;;11.20;99.90;;;;;;6241446;23;20020;-66
2023/05/17 05:56:42;;;;;;;4.88;1.83;;;11.20;99.90;;;;;;6242616;23;20448;-66
2023/05/17 05:59:08;;;;;;;11.85;2.35;;;11.20;99.90;;;;;;6241575;23;20054;-65
2023/05/17 06:01:33;;;;;;;4.40;1.52;;;11.30;99.90;;;;;;6214160;23;20082;-66
2023/05/17 06:03:59;;;;;;;3.83;1.80;;;11.40;99.90;;;;;;6241022;23;20704;-65
2023/05/17 06:06:25;;;;;;;5.32;1.52;;;11.20;99.90;;;;;;6214153;23;20445;-67
2023/05/17 06:08:51;;;;;;;6.82;1.73;;;11.20;99.90;;;;;;6239181;23;20016;-66
2023/05/17 06:11:17;;;;;;;5.53;1.92;;;11.10;99.90;;;;;;6240321;23;20026;-65
2023/05/17 06:13:43;;;;;;;6.43;2.15;;;11.20;99.90;;;;;;6240376;23;20020;-66
2023/05/17 06:16:08;;;;;;;6.35;1.88;;;11.20;99.90;;;;;;6213653;23;20024;-65
2023/05/17 06:18:34;;;;;;;6.55;2.72;;;11.30;99.90;;;;;;6240645;23;20047;-66
2023/05/17 06:21:00;;;;;;;5.13;1.48;;;11.50;99.90;;;;;;6240971;23;20030;-66
2023/05/17 06:23:26;;;;;;;6.07;1.52;;;11.60;99.90;;;;;;6213856;23;20326;-66
2023/05/17 06:25:51;;;;;;;7.28;1.70;;;11.60;99.90;;;;;;6240872;23;20047;-66
2023/05/17 06:28:17;;;;;;;7.53;2.25;;;11.50;99.90;;;;;;6241143;23;20054;-66
2023/05/17 06:30:43;;;;;;;6.28;1.60;;;11.40;99.90;;;;;;6240971;23;20082;-66
2023/05/17 06:33:09;;;;;;;3.47;1.20;;;11.30;99.90;;;;;;6240726;23;20024;-66
2023/05/17 06:35:35;;;;;;;6.38;1.75;;;11.30;99.90;;;;;;6241115;23;20081;-65
2023/05/17 06:38:01;;;;;;;4.80;1.42;;;11.50;99.90;;;;;;6241066;23;20681;-66
2023/05/17 06:40:27;;;;;;;6.93;1.60;;;11.60;99.90;;;;;;6241178;23;20016;-66
2023/05/17 06:42:52;;;;;;;7.00;1.67;;;11.60;99.90;;;;;;6213785;23;20035;-66
2023/05/17 06:45:18;;;;;;;7.15;1.50;;;11.60;99.90;;;;;;6268667;22;20019;-65
2023/05/17 06:47:44;;;;;;;5.05;1.40;;;11.60;99.90;;;;;;6271143;22;20031;-65
2023/05/17 06:50:10;;;;;;;4.20;2.05;;;11.60;99.90;;;;;;6271407;22;20123;-66
2023/05/17 06:52:36;;;;;;;6.00;1.52;;;11.60;99.90;;;;;;6271605;22;20011;-66
2023/05/17 06:55:01;;;;;;;8.02;1.85;;;11.30;99.90;;;;;;6271622;22;20020;-66
2023/05/17 06:57:27;;;;;;;3.22;1.15;;;11.20;99.90;;;;;;6271772;22;20026;-65
2023/05/17 06:59:53;;;;;;;5.20;2.40;;;11.10;99.90;;;;;;6244056;22;20525;-66
2023/05/17 07:02:19;;;;;;;6.13;1.40;;;11.10;99.90;;;;;;6271342;22;20050;-66
2023/05/17 07:04:44;;;;;;;5.32;1.85;;;11.20;99.90;;;;;;6271255;22;20020;-67
2023/05/17 07:07:10;;;;;;;7.13;1.77;;;11.10;99.90;;;;;;6271278;22;20030;-66
2023/05/17 07:09:36;;;;;;;11.93;1.63;;;11.10;99.90;;;;;;6271491;22;20016;-67
2023/05/17 07:12:03;;;;;;;6.60;1.50;;;11.10;99.90;;;;;;6270247;22;20106;-68
2023/05/17 07:14:29;;;;;;;8.98;1.75;;;11.10;99.90;;;;;;6270961;22;20019;-68
2023/05/17 07:16:55;;;;;;;5.28;1.50;;;11.20;99.90;;;;;;6270590;22;20019;-68
2023/05/17 07:19:20;;;;;;;8.65;1.70;;;11.50;99.90;;;;;;6218327;22;20047;-67
2023/05/17 07:21:46;;;;;;;11.15;2.85;;;11.70;99.90;;;;;;6271310;22;20016;-67
2023/05/17 07:24:12;;;;;;;8.50;1.52;;;11.60;99.90;;;;;;6271375;22;20279;-67
2023/05/17 07:26:37;;;;;;;6.45;1.30;;;11.70;99.90;;;;;;6271115;22;20152;-66
2023/05/17 07:29:03;;;;;;;5.47;1.63;;;11.80;99.90;;;;;;6243551;22;20023;-68
2023/05/17 07:31:29;;;;;;;8.35;1.88;;;11.70;99.90;;;;;;6271392;22;20505;-67
2023/05/17 07:33:55;;;;;;;8.60;1.70;;;11.80;99.90;;;;;;6271313;22;20016;-66
2023/05/17 07:36:20;;;;;;;14.52;3.00;;;12.10;99.90;;;;;;6271244;22;20022;-66
2023/05/17 07:38:46;;;;;;;9.82;2.25;;;12.20;99.90;;;;;;6271010;22;20165;-66
2023/05/17 07:41:15;;;;;;;7.07;1.77;;;12.30;99.90;;;;;;6271466;22;20028;-66
2023/05/17 07:43:41;;;;;;;13.07;3.53;;;12.10;99.90;;;;;;6244540;22;20051;-66
2023/05/17 07:46:07;;;;;;;11.82;2.05;;;12.00;99.90;;;;;;6220509;22;20687;-66
2023/05/17 07:48:33;;;;;;;6.13;1.67;;;12.30;99.90;;;;;;6245514;22;20427;-66
2023/05/17 07:50:58;;;;;;;10.25;1.50;;;12.10;99.90;;;;;;6271762;22;20012;-65
2023/05/17 07:53:24;;;;;;;7.15;1.98;;;12.00;99.90;;;;;;6272097;22;20012;-66
2023/05/17 07:55:50;;;;;;;5.38;1.30;;;12.20;99.90;;;;;;6272792;22;20392;-65
2023/05/17 07:58:16;;;;;;;7.78;1.77;;;12.10;99.90;;;;;;6245397;22;20016;-66
2023/05/17 08:00:42;;;;;;;13.57;1.90;;;12.40;99.90;;;;;;6272700;22;20136;-66
2023/05/17 08:03:08;;;;;;;9.82;2.97;;;12.40;99.90;;;;;;6272962;22;20016;-66
2023/05/17 08:05:33;;;;;;;9.05;2.30;;;12.60;99.90;;;;;;6272729;22;20008;-66
2023/05/17 08:08:00;;;;;;;16.48;2.40;;;12.60;99.90;;;;;;6273235;22;20020;-66
2023/05/17 08:10:26;;;;;;;9.30;1.65;;;12.60;99.90;;;;;;6272774;22;20531;-66
2023/05/17 08:12:52;;;;;;;16.98;2.50;;;12.50;99.90;;;;;;6272352;22;20391;-67
2023/05/17 08:15:18;;;;;;;9.00;1.63;;;12.30;99.90;;;;;;6272551;22;20028;-67
2023/05/17 08:17:44;;;;;;;8.82;2.00;;;12.40;99.90;;;;;;6273163;22;20019;-67
2023/05/17 08:20:09;;;;;;;8.85;1.70;;;12.50;99.90;;;;;;6272870;22;20741;-67
2023/05/17 08:22:35;;;;;;;5.38;2.10;;;12.40;99.90;;;;;;6273102;22;20020;-68
2023/05/17 08:25:02;;;;;;;8.15;2.20;;;12.40;99.90;;;;;;6273130;22;20016;-67
2023/05/17 08:27:29;;;;;;;11.88;1.77;;;12.30;99.90;;;;;;6272175;22;20034;-68
2023/05/17 08:29:56;;;;;;;4.95;1.88;;;12.80;99.90;;;;;;6245514;22;20081;-68
2023/05/17 08:32:22;;;;;;;6.75;1.60;;;12.90;99.90;;;;;;6272770;22;20093;-67
2023/05/17 08:34:48;;;;;;;8.25;2.03;;;12.80;99.90;;;;;;6272892;22;20051;-68
2023/05/17 08:37:14;;;;;;;5.43;2.33;;;12.70;99.90;;;;;;6272507;22;20018;-67
2023/05/17 08:39:39;;;;;;;7.85;2.03;;;12.60;99.90;;;;;;6272830;22;20031;-66
2023/05/17 08:42:08;;;;;;;8.70;1.92;;;12.70;99.90;;;;;;6272081;22;20474;-66
2023/05/17 08:44:35;;;;;;;5.75;2.33;;;12.60;99.90;;;;;;6272346;22;20023;-66
2023/05/17 08:47:02;;;;;;;6.53;1.80;;;12.40;99.90;;;;;;6272321;22;20019;-66
2023/05/17 08:49:33;;;;;;;7.32;1.80;;;12.70;99.90;;;;;;6272482;22;20113;-66
2023/05/17 08:52:00;;;;;;;8.77;1.88;;;12.80;99.90;;;;;;6272720;22;20015;-66
2023/05/17 08:54:26;;;;;;;7.63;1.83;;;13.10;99.90;;;;;;6270770;22;20024;-67
2023/05/17 08:56:59;;;;;;;10.07;2.38;;;13.00;99.90;;;;;;6272104;22;20123;-66
2023/05/17 08:59:32;;;;;;;9.15;1.63;;;12.90;99.90;;;;;;6272486;22;20069;-66
2023/05/17 09:01:59;;;;;;;8.88;2.25;;;12.80;99.90;;;;;;6272678;22;20022;-66
2023/05/17 09:04:26;;;;;;;11.00;2.10;;;12.70;99.90;;;;;;6272450;22;20015;-66
2023/05/17 09:06:51;;;;;;;10.48;1.70;;;12.70;99.90;;;;;;6272709;22;20119;-66
2023/05/17 09:09:18;;;;;;;6.43;1.52;;;12.60;99.90;;;;;;6272271;22;20170;-66
2023/05/17 09:11:44;;;;;;;7.63;1.90;;;12.90;99.90;;;;;;6272213;22;20023;-65
2023/05/17 09:14:10;;;;;;;10.00;1.90;;;12.70;99.90;;;;;;6271488;22;20539;-66
2023/05/17 09:16:36;;;;;;;15.40;2.20;;;12.60;99.90;;;;;;6272285;22;20023;-66
2023/05/17 09:19:04;;;;;;;11.05;2.30;;;12.50;99.90;;;;;;6272351;22;20051;-66
2023/05/17 09:21:31;;;;;;;7.28;2.05;;;12.50;99.90;;;;;;6272442;22;20016;-65
2023/05/17 09:24:00;;;;;;;12.30;2.20;;;12.50;99.90;;;;;;6244924;22;20095;-66
2023/05/17 09:26:44;;;;;;;8.15;1.90;;;12.70;99.90;;;;;;6271709;22;20536;-66
2023/05/17 09:29:10;;;;;;;6.70;1.67;;;13.00;99.90;;;;;;6244781;22;20051;-66
2023/05/17 09:31:38;;;;;;;9.63;2.28;;;13.20;99.90;;;;;;6272332;22;20477;-66
2023/05/17 09:34:06;;;;;;;9.63;1.95;;;13.20;99.90;;;;;;6272298;22;20442;-66
2023/05/17 09:36:34;;;;;;;6.78;1.88;;;13.10;99.90;;;;;;6244744;22;20019;-66
2023/05/17 09:39:05;;;;;;;6.60;1.85;;;13.10;99.90;;;;;;6271774;22;20451;-66
2023/05/17 09:41:39;;;;;;;7.55;1.63;;;13.40;99.90;;;;;;6271916;22;20355;-66
2023/05/17 09:44:08;;;;;;;6.30;1.48;;;13.30;99.90;;;;;;6271842;22;20024;-66
2023/05/17 09:46:35;;;;;;;7.65;1.60;;;13.20;99.90;;;;;;6272102;22;20019;-66
2023/05/17 09:49:04;;;;;;;9.95;1.88;;;13.10;99.90;;;;;;6244661;22;20094;-66
2023/05/17 09:51:38;;;;;;;8.13;1.70;;;13.00;99.90;;;;;;6272172;22;20036;-67
2023/05/17 09:54:06;;;;;;;8.20;1.73;;;13.50;99.90;;;;;;6272238;22;20332;-68
2023/05/17 09:56:32;;;;;;;6.88;1.70;;;13.50;99.90;;;;;;6272142;22;20335;-67
2023/05/17 09:59:00;;;;;;;5.28;2.00;;;13.60;99.90;;;;;;6271895;22;20023;-67
2023/05/17 10:01:28;;;;;;;8.38;1.83;;;13.30;99.90;;;;;;6271497;22;20083;-67
2023/05/17 10:03:54;;;;;;;6.15;1.63;;;13.60;99.90;;;;;;6272001;22;20372;-67
2023/05/17 10:06:25;;;;;;;5.75;1.90;;;13.30;99.90;;;;;;6271057;22;20640;-67
2023/05/17 10:08:54;;;;;;;7.43;2.95;;;13.30;99.90;;;;;;6244518;22;20023;-67
2023/05/17 10:11:33;;;;;;;6.88;1.73;;;13.30;99.90;;;;;;6272015;22;20015;-67
2023/05/17 10:14:11;;;;;;;9.85;1.83;;;13.80;99.90;;;;;;6244498;22;20008;-67
2023/05/17 10:16:37;;;;;;;8.32;1.42;;;13.70;99.90;;;;;;6272056;22;20019;-67
2023/05/17 10:19:04;;;;;;;5.95;1.58;;;13.40;99.90;;;;;;6272324;22;20034;-67
2023/05/17 10:21:31;;;;;;;4.70;1.60;;;13.40;99.90;;;;;;6271955;22;20730;-67
2023/05/17 10:24:01;;;;;;;6.65;1.67;;;13.70;99.90;;;;;;6271609;22;20015;-66
2023/05/17 10:26:28;;;;;;;10.23;3.30;;;13.70;99.90;;;;;;6271394;22;20094;-67
2023/05/17 10:28:59;;;;;;;10.88;1.85;;;13.60;99.90;;;;;;6244130;22;20022;-67
2023/05/17 10:31:29;;;;;;;8.10;1.70;;;13.60;99.90;;;;;;6271408;22;20054;-67
2023/05/17 10:33:55;;;;;;;3.42;1.55;;;13.60;99.90;;;;;;6271096;22;20026;-67
2023/05/17 10:36:23;;;;;;;6.28;1.60;;;13.60;99.90;;;;;;6243191;22;20026;-67
2023/05/17 10:38:51;;;;;;;9.57;1.65;;;13.80;99.90;;;;;;6271714;22;20023;-66
2023/05/17 10:41:18;;;;;;;12.40;1.55;;;13.60;99.90;;;;;;6244009;22;20020;-66
2023/05/17 10:50:20;;;;;;;9.85;1.92;;;13.40;99.90;;;;;;6245477;22;20032;-67
2023/05/17 10:52:47;;;;;;;8.13;1.17;;;13.40;99.90;;;;;;6271313;22;20027;-67
2023/05/17 10:55:16;;;;;;;9.05;1.65;;;13.90;99.90;;;;;;6271197;22;20028;-68
2023/05/17 10:57:42;;;;;;;5.20;1.92;;;13.90;99.90;;;;;;6271518;22;20071;-68
2023/05/17 11:00:18;;;;;;;2.95;1.27;;;13.80;99.80;;;;;;6243573;22;20034;-67
2023/05/17 11:02:43;;;;;;;6.45;1.67;;;13.70;99.90;;;;;;6271556;22;20376;-68
2023/05/17 11:05:23;;;;;;;3.47;1.17;;;13.70;98.90;;;;;;6271559;22;20016;-68
2023/05/17 11:07:49;;;;;;;4.45;1.23;;;13.50;98.90;;;;;;6270577;22;20119;-68
2023/05/17 11:10:16;;;;;;;4.32;1.60;;;13.50;99.80;;;;;;6243845;22;20051;-68
2023/05/17 11:12:45;;;;;;;3.47;1.17;;;13.50;99.90;;;;;;6271401;22;20466;-68
2023/05/17 11:15:13;;;;;;;3.55;1.20;;;13.60;99.90;;;;;;6271163;22;20065;-68
2023/05/17 11:17:42;;;;;;;7.53;1.73;;;13.60;99.90;;;;;;6271561;22;20019;-68
2023/05/17 11:20:14;;;;;;;8.27;1.45;;;13.70;99.90;;;;;;6273515;22;20026;-68
2023/05/17 11:22:54;;;;;;;10.45;1.65;;;13.70;99.90;;;;;;6273287;22;20023;-70
2023/05/17 11:25:20;;;;;;;9.05;2.15;;;14.20;99.90;;;;;;6273037;22;20019;-68
2023/05/17 11:27:48;;;;;;;4.50;1.10;;;14.10;99.00;;;;;;6273557;22;20047;-69
2023/05/17 11:30:18;;;;;;;5.28;2.28;;;14.20;99.70;;;;;;6273407;22;20020;-68
2023/05/17 11:32:56;;;;;;;9.50;1.60;;;14.30;99.90;;;;;;6272987;22;20073;-68
2023/05/17 11:35:37;;;;;;;4.10;1.50;;;14.50;99.90;;;;;;6273429;22;20030;-68
2023/05/17 11:38:15;;;;;;;4.43;1.50;;;14.60;99.00;;;;;;6272923;22;20020;-68
2023/05/17 11:40:41;;;;;;;3.72;1.40;;;14.50;98.80;;;;;;6273316;22;20410;-68
2023/05/17 11:43:24;;;;;;;5.22;1.65;;;14.80;99.10;;;;;;6272910;22;20024;-68
2023/05/17 11:46:02;;;;;;;6.90;1.55;;;14.60;98.00;;;;;;6273178;22;20034;-68
2023/05/17 11:48:29;;;;;;;5.78;1.25;;;14.90;98.90;;;;;;6246454;22;20347;-69
2023/05/17 11:50:55;;;;;;;2.83;1.20;;;14.90;98.70;;;;;;6272766;22;20343;-68
2023/05/17 11:53:23;;;;;;;6.43;2.05;;;14.90;97.80;;;;;;6272986;22;20023;-68
2023/05/17 11:55:50;;;;;;;4.78;1.60;;;14.90;98.10;;;;;;6273445;22;20019;-68
2023/05/17 11:58:18;;;;;;;5.82;1.20;;;14.80;98.40;;;;;;6273182;22;20027;-69
2023/05/17 12:00:44;;;;;;;7.18;1.60;;;15.00;98.50;;;;;;6273132;22;20016;-68
2023/05/17 12:03:20;;;;;;;5.13;1.80;;;14.90;98.00;;;;;;6273366;22;20096;-68
2023/05/17 12:05:48;;;;;;;5.50;1.67;;;14.60;97.60;;;;;;6272805;22;20019;-68
2023/05/17 12:08:16;;;;;;;5.97;1.52;;;14.40;97.40;;;;;;6273056;22;20015;-68
2023/05/17 12:10:49;;;;;;;3.20;1.23;;;14.30;96.80;;;;;;6245572;22;20455;-68
2023/05/17 12:13:15;;;;;;;4.13;1.40;;;14.40;98.10;;;;;;6273175;22;20098;-68
2023/05/17 12:15:44;;;;;;;5.05;1.40;;;14.70;98.40;;;;;;6273208;22;20016;-67
2023/05/17 12:18:10;;;;;;;7.50;1.85;;;14.70;98.30;;;;;;6272611;22;20023;-68
2023/05/17 12:20:37;;;;;;;3.92;1.80;;;14.70;98.40;;;;;;6272604;22;20024;-68
2023/05/17 12:23:03;;;;;;;5.72;1.42;;;14.80;97.60;;;;;;6245772;22;20025;-69
2023/05/17 12:25:29;;;;;;;5.05;1.23;;;14.80;97.20;;;;;;6272854;22;20016;-68
2023/05/17 12:28:15;;;;;;;2.45;1.05;;;14.40;96.80;;;;;;6272712;22;20093;-68
2023/05/17 12:30:41;;;;;;;4.93;2.05;;;14.20;95.10;;;;;;6272391;22;20095;-68
2023/05/17 12:33:07;;;;;;;6.10;2.60;;;14.30;97.30;;;;;;6245827;22;20059;-67
2023/05/17 12:35:33;;;;;;;2.85;1.35;;;14.30;97.30;;;;;;6272971;22;20023;-70
2023/05/17 12:37:59;;;;;;;3.97;1.17;;;14.70;97.40;;;;;;6272930;22;20023;-69
2023/05/17 12:40:25;;;;;;;3.97;1.20;;;14.70;97.10;;;;;;6272893;22;20047;-68
2023/05/17 12:43:01;;;;;;;6.38;1.48;;;14.40;95.20;;;;;;6272470;22;20093;-70
2023/05/17 12:45:27;;;;;;;7.10;1.80;;;14.30;96.70;;;;;;6273019;22;20023;-69
2023/05/17 12:47:52;;;;;;;8.60;2.13;;;14.40;96.40;;;;;;6272879;22;20053;-67
2023/05/17 12:50:31;;;;;;;4.43;1.30;;;14.30;96.30;;;;;;6272081;22;20020;-68
2023/05/17 12:52:57;;;;;;;5.53;1.10;;;14.10;96.60;;;;;;6272775;22;20153;-70